createdAt,value
2022-11-19T00:02:26.380Z,8.15
2022-11-19T00:05:28.461Z,5.72
2022-11-19T00:08:30.716Z,6.47
2022-11-19T00:11:51.049Z,7.00
2022-11-19T00:14:53.026Z,7.35
2022-11-19T00:17:56.502Z,6.93
2022-11-19T00:21:13.201Z,7.45
2022-11-19T00:24:15.259Z,6.18
2022-11-19T00:27:17.272Z,7.85
2022-11-19T00:30:46.385Z,6.18
2022-11-19T00:33:43.701Z,7.80
2022-11-19T00:36:45.662Z,6.72
2022-11-19T00:39:47.713Z,6.32
2022-11-19T00:43:09.633Z,6.80
2022-11-19T00:46:12.865Z,7.03
2022-11-19T00:49:14.934Z,6.70
2022-11-19T00:52:17.276Z,7.13
2022-11-19T00:55:19.398Z,7.85
2022-11-19T00:58:21.603Z,5.80
2022-11-19T01:01:25.314Z,7.00
2022-11-19T01:04:27.467Z,7.53
2022-11-19T01:07:29.428Z,7.60
2022-11-19T01:10:31.446Z,8.05
2022-11-19T01:13:34.942Z,8.13
2022-11-19T01:16:39.749Z,8.30
2022-11-19T01:19:41.860Z,8.25
2022-11-19T01:22:45.118Z,7.57
2022-11-19T01:25:47.190Z,9.60
2022-11-19T01:28:49.753Z,8.18
2022-11-19T01:31:51.964Z,10.52
2022-11-19T01:34:53.993Z,8.95
2022-11-19T01:37:56.080Z,10.85
2022-11-19T01:40:58.920Z,8.35
2022-11-19T01:44:03.484Z,9.55
2022-11-19T01:47:05.433Z,9.00
2022-11-19T01:50:07.730Z,8.40
2022-11-19T01:53:11.092Z,6.97
2022-11-19T01:56:13.878Z,7.03
2022-11-19T01:59:17.929Z,8.48
2022-11-19T02:02:22.645Z,10.52
2022-11-19T02:05:26.196Z,7.65
2022-11-19T02:08:44.212Z,7.97
2022-11-19T02:12:06.016Z,8.90
2022-11-19T02:15:24.605Z,12.18
2022-11-19T02:18:48.957Z,11.50
2022-11-19T02:22:04.046Z,14.38
2022-11-19T02:25:08.899Z,12.48
2022-11-19T02:28:33.194Z,10.32
2022-11-19T02:31:44.390Z,9.35
2022-11-19T02:34:56.669Z,12.05
2022-11-19T02:38:26.581Z,13.55
2022-11-19T02:41:46.943Z,11.48
2022-11-19T02:45:02.613Z,12.40
2022-11-19T02:48:20.602Z,15.00
2022-11-19T02:51:23.233Z,18.50
2022-11-19T02:54:27.804Z,15.80
2022-11-19T02:57:31.000Z,12.50
2022-11-19T03:01:07.801Z,11.55
2022-11-19T03:04:29.848Z,14.00
2022-11-19T03:07:31.983Z,14.17
2022-11-19T03:10:48.710Z,15.70
2022-11-19T03:14:14.398Z,14.85
2022-11-19T03:17:32.277Z,15.80
2022-11-19T03:21:26.513Z,13.25
2022-11-19T03:24:36.369Z,14.35
2022-11-19T03:27:51.948Z,15.30
2022-11-19T03:30:56.886Z,15.32
2022-11-19T03:34:03.205Z,15.75
2022-11-19T03:37:07.212Z,18.27
2022-11-19T03:40:11.545Z,14.90
2022-11-19T03:43:16.883Z,16.02
2022-11-19T03:46:20.576Z,18.95
2022-11-19T03:49:28.716Z,17.63
2022-11-19T03:52:31.025Z,20.63
2022-11-19T03:55:45.362Z,16.30
2022-11-19T03:58:48.245Z,18.17
2022-11-19T04:01:52.441Z,17.13
2022-11-19T04:04:54.517Z,20.00
2022-11-19T04:07:56.455Z,19.75
2022-11-19T04:14:03.308Z,19.45
2022-11-19T04:17:05.306Z,19.02
2022-11-19T04:20:08.947Z,20.02
2022-11-19T04:23:10.933Z,20.38
2022-11-19T04:26:13.056Z,22.15
2022-11-19T04:29:15.111Z,21.42
2022-11-19T04:32:17.081Z,25.05
2022-11-19T04:35:21.915Z,20.92
2022-11-19T04:38:24.128Z,22.08
2022-11-19T04:41:26.249Z,20.88
2022-11-19T04:44:28.318Z,22.15
2022-11-19T04:47:30.264Z,21.02
2022-11-19T04:50:32.274Z,23.30
2022-11-19T04:53:34.239Z,24.13
2022-11-19T04:56:36.926Z,27.23
2022-11-19T04:59:39.138Z,26.92
2022-11-19T05:02:41.133Z,24.55
2022-11-19T05:05:43.237Z,27.98
2022-11-19T05:08:45.191Z,27.10
2022-11-19T05:11:47.271Z,27.85
2022-11-19T05:14:49.243Z,26.35
2022-11-19T05:17:51.221Z,25.67
2022-11-19T05:20:53.332Z,28.58
2022-11-19T05:23:55.315Z,25.98
2022-11-19T05:26:57.378Z,21.45
2022-11-19T05:29:59.335Z,28.80
2022-11-19T05:33:01.649Z,36.00
2022-11-19T05:36:03.931Z,27.73
2022-11-19T05:39:05.933Z,26.20
2022-11-19T05:42:08.220Z,30.30
2022-11-19T05:45:10.906Z,29.63
2022-11-19T05:48:12.888Z,29.40
2022-11-19T05:51:16.278Z,34.80
2022-11-19T05:54:18.371Z,33.88
2022-11-19T05:57:20.432Z,28.80
2022-11-19T06:00:22.928Z,30.95
2022-11-19T06:03:25.739Z,31.58
2022-11-19T06:06:27.767Z,30.17
2022-11-19T06:09:29.796Z,31.98
2022-11-19T06:12:31.871Z,21.48
2022-11-19T06:15:34.971Z,36.10
2022-11-19T06:18:36.991Z,41.97
2022-11-19T06:21:38.949Z,31.13
2022-11-19T06:24:41.028Z,30.75
2022-11-19T06:27:43.019Z,35.22
2022-11-19T06:30:45.015Z,32.00
2022-11-19T06:33:47.288Z,28.45
2022-11-19T06:36:50.708Z,30.05
2022-11-19T06:39:52.940Z,34.42
2022-11-19T06:42:54.954Z,30.60
2022-11-19T06:45:57.053Z,34.53
2022-11-19T06:48:59.243Z,35.35
2022-11-19T06:52:01.289Z,34.83
2022-11-19T06:55:03.766Z,30.45
2022-11-19T07:04:11.586Z,34.63
2022-11-19T07:07:13.855Z,35.83
2022-11-19T07:10:16.306Z,29.73
2022-11-19T07:16:20.237Z,30.05
2022-11-19T07:19:22.606Z,31.17
2022-11-19T07:22:24.688Z,31.95
2022-11-19T07:25:27.748Z,32.97
2022-11-19T07:28:29.967Z,31.65
2022-11-19T07:31:33.270Z,39.35
2022-11-19T07:34:35.303Z,28.40
2022-11-19T07:37:39.033Z,30.38
2022-11-19T07:40:41.030Z,29.27
2022-11-19T07:43:43.033Z,36.60
2022-11-19T07:46:45.276Z,34.78
2022-11-19T07:49:47.508Z,32.38
2022-11-19T07:52:49.524Z,32.00
2022-11-19T07:55:51.522Z,28.65
2022-11-19T07:58:53.707Z,35.03
2022-11-19T08:01:56.027Z,33.67
2022-11-19T08:04:58.045Z,33.33
2022-11-19T08:08:00.031Z,36.80
2022-11-19T08:11:07.563Z,40.55
2022-11-19T08:14:12.454Z,31.85
2022-11-19T08:17:32.797Z,30.15
2022-11-19T08:20:34.917Z,32.92
2022-11-19T08:23:38.516Z,29.75
2022-11-19T08:26:41.059Z,31.75
2022-11-19T08:29:43.140Z,32.00
2022-11-19T08:32:45.123Z,32.20
2022-11-19T08:35:47.259Z,22.27
2022-11-19T08:38:49.366Z,31.35
2022-11-19T08:42:10.264Z,35.85
2022-11-19T08:45:15.587Z,33.13
2022-11-19T08:48:20.175Z,29.73
2022-11-19T08:51:22.512Z,37.03
2022-11-19T08:54:24.817Z,29.00
2022-11-19T08:57:26.801Z,31.98
2022-11-19T09:00:29.534Z,28.85
2022-11-19T09:03:31.542Z,32.33
2022-11-19T09:06:36.517Z,22.38
2022-11-19T09:09:38.509Z,29.80
2022-11-19T09:12:40.492Z,31.15
2022-11-19T09:15:42.589Z,23.38
2022-11-19T09:18:44.552Z,22.70
2022-11-19T09:21:46.661Z,33.22
2022-11-19T09:24:48.737Z,28.75
2022-11-19T09:27:50.767Z,28.20
2022-11-19T09:31:07.722Z,31.33
2022-11-19T09:34:09.743Z,30.55
2022-11-19T09:37:11.841Z,29.80
2022-11-19T09:40:19.094Z,32.78
2022-11-19T09:43:48.674Z,32.83
2022-11-19T09:46:58.487Z,30.90
2022-11-19T09:50:15.627Z,37.80
2022-11-19T09:53:20.040Z,38.45
2022-11-19T09:56:31.075Z,34.10
2022-11-19T09:59:39.174Z,28.45
2022-11-19T10:02:41.323Z,29.40
2022-11-19T10:06:13.991Z,35.90
2022-11-19T10:09:44.699Z,29.58
2022-11-19T10:13:12.013Z,28.67
2022-11-19T10:16:24.101Z,30.23
2022-11-19T10:19:26.145Z,20.00
2022-11-19T10:22:51.651Z,39.90
2022-11-19T10:26:04.326Z,29.70
2022-11-19T10:29:20.056Z,26.25
2022-11-19T10:32:38.217Z,29.58
2022-11-19T10:35:48.742Z,25.52
2022-11-19T10:39:07.494Z,35.17
2022-11-19T10:42:20.065Z,30.23
2022-11-19T10:45:25.401Z,28.25
2022-11-19T10:48:41.787Z,30.05
2022-11-19T10:51:43.883Z,27.48
2022-11-19T10:54:47.623Z,30.92
2022-11-19T10:57:59.933Z,32.42
2022-11-19T11:01:04.957Z,25.90
2022-11-19T11:04:12.093Z,27.00
2022-11-19T11:07:14.197Z,27.50
2022-11-19T11:10:34.801Z,26.80
2022-11-19T11:13:57.319Z,25.58
2022-11-19T11:16:59.664Z,26.75
2022-11-19T11:20:06.700Z,27.58
2022-11-19T11:23:18.157Z,23.90
2022-11-19T11:26:26.002Z,25.42
2022-11-19T11:29:28.030Z,27.23
2022-11-19T11:32:30.926Z,31.13
2022-11-19T11:35:36.540Z,26.40
2022-11-19T11:38:50.300Z,27.33
2022-11-19T11:42:08.720Z,25.02
2022-11-19T11:45:24.514Z,31.35
2022-11-19T11:48:34.161Z,25.05
2022-11-19T11:51:39.575Z,25.23
2022-11-19T11:54:58.194Z,30.30
2022-11-19T11:58:05.939Z,27.88
2022-11-19T12:01:18.446Z,30.52
2022-11-19T12:04:20.648Z,28.88
2022-11-19T12:07:34.418Z,29.60
2022-11-19T12:11:05.913Z,29.35
2022-11-19T12:14:11.882Z,28.27
2022-11-19T12:17:22.770Z,28.00
2022-11-19T12:20:36.933Z,25.83
2022-11-19T12:24:20.141Z,25.55
2022-11-19T12:30:50.314Z,25.92
2022-11-19T12:33:58.878Z,26.65
2022-11-19T12:37:26.922Z,29.70
2022-11-19T12:41:17.300Z,29.02
2022-11-19T12:44:29.837Z,27.63
2022-11-19T12:47:49.842Z,27.98
2022-11-19T12:51:00.953Z,28.48
2022-11-19T12:54:24.338Z,28.73
2022-11-19T12:57:43.262Z,30.85
2022-11-19T13:00:58.272Z,28.17
2022-11-19T13:04:22.041Z,30.58
2022-11-19T13:07:39.976Z,31.48
2022-11-19T13:10:50.146Z,28.25
2022-11-19T13:14:02.216Z,27.55
2022-11-19T13:17:05.903Z,27.33
2022-11-19T13:20:17.303Z,24.55
2022-11-19T13:23:28.858Z,26.98
2022-11-19T13:26:33.016Z,26.90
2022-11-19T13:29:53.289Z,26.42
2022-11-19T13:33:16.161Z,28.38
2022-11-19T13:39:34.140Z,25.42
2022-11-19T13:43:10.439Z,26.73
2022-11-19T13:46:21.894Z,31.92
2022-11-19T13:49:36.525Z,27.00
2022-11-19T13:52:46.679Z,29.73
2022-11-19T13:55:55.066Z,27.98
2022-11-19T13:58:57.261Z,26.60
2022-11-19T14:02:26.440Z,35.83
2022-11-19T14:06:16.537Z,28.73
2022-11-19T14:09:40.338Z,26.95
2022-11-19T14:13:06.963Z,24.75
2022-11-19T14:17:02.386Z,28.85
2022-11-19T14:20:59.002Z,28.25
2022-11-19T14:24:19.745Z,27.85
2022-11-19T14:27:34.287Z,29.45
2022-11-19T14:31:11.787Z,28.00
2022-11-19T14:34:27.656Z,25.67
2022-11-19T14:37:45.624Z,23.52
2022-11-19T14:40:59.133Z,27.60
2022-11-19T14:44:26.162Z,29.92
2022-11-19T14:47:33.560Z,30.90
2022-11-19T14:50:36.393Z,30.35
2022-11-19T14:54:25.955Z,27.02
2022-11-19T14:57:35.130Z,27.70
2022-11-19T15:00:41.078Z,30.40
2022-11-19T15:03:48.484Z,32.20
2022-11-19T15:06:52.128Z,29.85
2022-11-19T15:10:09.623Z,29.13
2022-11-19T15:13:24.252Z,28.48
2022-11-19T15:16:27.882Z,32.58
2022-11-19T15:19:58.711Z,30.75
2022-11-19T15:23:03.684Z,33.03
2022-11-19T15:26:42.002Z,31.30
2022-11-19T15:30:05.431Z,31.58
2022-11-19T15:33:28.647Z,28.48
2022-11-19T15:36:32.729Z,31.70
2022-11-19T15:39:39.387Z,33.47
2022-11-19T15:42:54.444Z,41.80
2022-11-19T15:46:21.621Z,33.25
2022-11-19T15:49:29.305Z,31.80
2022-11-19T15:52:32.512Z,38.30
2022-11-19T15:55:35.835Z,34.80
2022-11-19T15:58:46.926Z,37.40
2022-11-19T16:02:03.895Z,35.40
2022-11-19T16:05:07.748Z,38.13
2022-11-19T16:08:13.530Z,37.40
2022-11-19T16:11:39.739Z,35.10
2022-11-19T16:15:00.470Z,34.85
2022-11-19T16:18:02.814Z,37.15
2022-11-19T16:21:05.091Z,33.60
2022-11-19T16:24:31.935Z,34.03
2022-11-19T16:27:34.420Z,34.17
2022-11-19T16:31:08.245Z,34.05
2022-11-19T16:34:25.197Z,33.60
2022-11-19T16:37:27.722Z,37.42
2022-11-19T16:43:55.579Z,37.53
2022-11-19T16:47:06.903Z,35.10
2022-11-19T16:50:46.817Z,36.40
2022-11-19T16:53:49.157Z,35.25
2022-11-19T16:56:51.372Z,38.47
2022-11-19T17:00:04.459Z,32.65
2022-11-19T17:03:19.655Z,35.83
2022-11-19T17:06:25.843Z,36.83
2022-11-19T17:09:47.538Z,33.03
2022-11-19T17:12:51.584Z,35.75
2022-11-19T17:15:53.945Z,37.08
2022-11-19T17:18:55.948Z,38.20
2022-11-19T17:22:02.590Z,34.63
2022-11-19T17:25:05.430Z,36.85
2022-11-19T17:28:16.377Z,37.78
2022-11-19T17:31:26.176Z,32.53
2022-11-19T17:34:32.215Z,34.95
2022-11-19T17:37:34.303Z,38.97
2022-11-19T17:40:36.570Z,25.58
2022-11-19T17:43:58.194Z,31.98
2022-11-19T17:47:20.817Z,33.67
2022-11-19T17:50:24.736Z,30.98
2022-11-19T17:53:27.319Z,31.40
2022-11-19T17:56:31.600Z,35.17
2022-11-19T17:59:33.860Z,31.92
2022-11-19T18:02:36.111Z,35.90
2022-11-19T18:05:40.303Z,36.28
2022-11-19T18:08:43.361Z,34.10
2022-11-19T18:11:45.667Z,41.42
2022-11-19T18:14:48.071Z,39.08
2022-11-19T18:17:50.191Z,38.88
2022-11-19T18:20:56.446Z,41.38
2022-11-19T18:24:01.078Z,41.90
2022-11-19T18:27:03.120Z,34.58
2022-11-19T18:30:05.757Z,39.08
2022-11-19T18:36:12.231Z,40.25
2022-11-19T18:39:14.979Z,38.70
2022-11-19T18:42:17.237Z,45.13
2022-11-19T18:45:19.698Z,42.47
2022-11-19T18:48:22.534Z,42.88
2022-11-19T18:54:34.195Z,41.15
2022-11-19T18:57:36.725Z,39.22
2022-11-19T19:00:39.181Z,45.75
2022-11-19T19:03:41.811Z,41.42
2022-11-19T19:06:44.277Z,40.72
2022-11-19T19:12:48.774Z,39.83
2022-11-19T19:15:51.288Z,42.63
2022-11-19T19:21:56.121Z,31.85
2022-11-19T19:28:01.069Z,39.72
2022-11-19T19:31:03.552Z,45.05
2022-11-19T19:34:05.998Z,37.38
2022-11-19T19:40:12.493Z,38.35
2022-11-19T19:43:14.967Z,40.70
2022-11-19T19:49:20.817Z,41.67
2022-11-19T19:52:24.843Z,45.75
2022-11-19T19:58:32.658Z,40.03
2022-11-19T20:01:36.313Z,46.67
2022-11-19T20:04:39.906Z,46.90
2022-11-19T20:07:42.857Z,41.83
2022-11-19T20:10:45.403Z,42.17
2022-11-19T20:13:48.063Z,41.50
2022-11-19T20:16:50.327Z,45.30
2022-11-19T20:19:53.041Z,45.60
2022-11-19T20:22:55.084Z,48.78
2022-11-19T20:26:02.764Z,43.83
2022-11-19T20:29:07.005Z,39.80
2022-11-19T20:32:09.248Z,42.90
2022-11-19T20:35:11.719Z,42.65
2022-11-19T20:41:36.933Z,49.22
2022-11-19T20:44:39.377Z,46.97
2022-11-19T20:50:44.133Z,47.33
2022-11-19T20:53:46.514Z,47.35
2022-11-19T20:56:54.065Z,43.55
2022-11-19T20:59:56.279Z,43.50
2022-11-19T21:02:58.442Z,45.10
2022-11-19T21:06:03.409Z,44.97
2022-11-19T21:09:06.979Z,47.75
2022-11-19T21:12:09.526Z,48.30
2022-11-19T21:15:11.685Z,51.00
2022-11-19T21:18:14.132Z,48.85
2022-11-19T21:24:19.830Z,51.15
2022-11-19T21:27:22.536Z,52.03
2022-11-19T21:30:24.609Z,54.67
2022-11-19T21:33:26.854Z,53.22
2022-11-19T21:36:28.880Z,53.50
2022-11-19T21:39:31.118Z,51.75
2022-11-19T21:42:33.243Z,56.47
2022-11-19T21:45:40.097Z,58.80
2022-11-19T21:48:42.220Z,53.13
2022-11-19T21:51:44.525Z,46.25
2022-11-19T21:54:46.524Z,55.10
2022-11-19T21:57:48.684Z,56.75
2022-11-19T22:00:51.093Z,53.58
2022-11-19T22:03:53.144Z,57.50
2022-11-19T22:06:55.150Z,43.28
2022-11-19T22:09:57.205Z,61.78
2022-11-19T22:12:59.418Z,61.47
2022-11-19T22:16:01.436Z,56.80
2022-11-19T22:19:04.131Z,57.40
2022-11-19T22:22:06.226Z,54.83
2022-11-19T22:25:08.589Z,60.20
2022-11-19T22:28:10.526Z,57.33
2022-11-19T22:31:13.511Z,56.15
2022-11-19T22:34:15.639Z,55.38
2022-11-19T22:37:17.675Z,55.15
2022-11-19T22:40:19.777Z,60.25
2022-11-19T22:43:24.425Z,53.33
2022-11-19T22:46:27.453Z,55.53
2022-11-19T22:49:29.596Z,52.22
2022-11-19T22:52:32.295Z,51.38
2022-11-19T22:55:38.200Z,39.90
2022-11-19T22:58:41.072Z,52.42
2022-11-19T23:01:43.145Z,43.95
2022-11-19T23:04:45.155Z,48.50
2022-11-19T23:07:47.149Z,45.90
2022-11-19T23:10:56.593Z,46.80
2022-11-19T23:13:58.630Z,45.05
2022-11-19T23:17:00.985Z,51.90
2022-11-19T23:20:04.761Z,52.58
2022-11-19T23:23:07.043Z,49.88
2022-11-19T23:26:11.187Z,52.20
2022-11-19T23:29:13.177Z,48.78
2022-11-19T23:32:15.368Z,48.63
2022-11-19T23:35:17.356Z,47.00
2022-11-19T23:38:19.536Z,46.80
2022-11-19T23:41:22.602Z,49.17
2022-11-19T23:44:24.702Z,48.63
2022-11-19T23:47:26.735Z,53.72
2022-11-19T23:50:28.883Z,56.00
2022-11-19T23:53:31.102Z,40.45
2022-11-19T23:56:34.598Z,50.05
2022-11-19T23:59:36.649Z,48.20
